Time;durP1;ratioP1;P1;durP2;ratioP2;P2;SDS_P1;SDS_P2;PMS_P1;PMS_P2;Temp;Humidity;BMP_temperature;BMP_pressure;BME280_temperature;BME280_humidity;BME280_pressure;Samples;Min_cycle;Max_cycle;Signal;HPM_P1;HPM_P2
2021/06/16 00:00:20;;;;;;;11.73;4.85;;;12.90;99.90;;;;;;5036197;28;20076;-62
2021/06/16 00:02:46;;;;;;;9.10;5.00;;;12.90;99.90;;;;;;5025694;28;20060;-62
2021/06/16 00:05:16;;;;;;;15.05;5.55;;;12.90;99.90;;;;;;5030303;28;20076;-64
2021/06/16 00:07:42;;;;;;;11.25;5.40;;;12.80;99.90;;;;;;5032647;28;20462;-64
2021/06/16 00:10:09;;;;;;;12.75;5.25;;;12.80;99.90;;;;;;5042031;28;20068;-62
2021/06/16 00:12:36;;;;;;;12.52;5.20;;;12.90;99.90;;;;;;5040211;28;20037;-63
2021/06/16 00:15:07;;;;;;;9.27;5.32;;;12.80;99.90;;;;;;5039743;28;20041;-63
2021/06/16 00:17:32;;;;;;;16.38;5.22;;;12.80;99.90;;;;;;5037586;28;20051;-62
2021/06/16 00:19:58;;;;;;;10.48;5.03;;;12.80;99.90;;;;;;5026486;28;20096;-64
2021/06/16 00:22:24;;;;;;;15.00;5.45;;;12.80;99.90;;;;;;5038842;28;20072;-62
2021/06/16 00:25:11;;;;;;;10.85;5.38;;;12.80;99.90;;;;;;5027501;28;20049;-62
2021/06/16 00:27:37;;;;;;;20.63;5.82;;;12.80;99.90;;;;;;5032162;28;20048;-63
2021/06/16 00:30:05;;;;;;;9.43;5.03;;;12.70;99.90;;;;;;5033016;28;20037;-62
2021/06/16 00:32:31;;;;;;;12.30;6.00;;;12.70;99.90;;;;;;5032483;28;20072;-62
2021/06/16 00:34:57;;;;;;;15.70;5.97;;;12.70;99.90;;;;;;5033351;28;20042;-62
2021/06/16 00:37:23;;;;;;;16.30;5.78;;;12.70;99.90;;;;;;5031411;28;20054;-62
2021/06/16 00:39:49;;;;;;;9.82;4.93;;;12.70;99.90;;;;;;5030522;28;20113;-63
2021/06/16 00:42:14;;;;;;;9.65;4.85;;;12.70;99.90;;;;;;5045807;28;20048;-63
2021/06/16 00:44:40;;;;;;;16.73;5.80;;;12.60;99.90;;;;;;5042412;28;20065;-62
2021/06/16 00:47:06;;;;;;;14.07;4.90;;;12.60;99.90;;;;;;5045388;28;20050;-63
2021/06/16 00:49:32;;;;;;;14.85;6.05;;;12.60;99.90;;;;;;5045137;28;20045;-63
2021/06/16 00:51:58;;;;;;;16.20;5.35;;;12.60;99.90;;;;;;5046263;28;20052;-63
2021/06/16 00:54:24;;;;;;;14.55;5.05;;;12.50;99.90;;;;;;5045798;28;20045;-63
2021/06/16 00:56:50;;;;;;;12.77;4.75;;;12.60;99.90;;;;;;5045548;28;20509;-63
2021/06/16 00:59:16;;;;;;;11.65;5.13;;;12.50;99.90;;;;;;5045180;28;20045;-63
2021/06/16 01:01:46;;;;;;;12.32;5.18;;;12.60;99.90;;;;;;5045778;28;20048;-63
2021/06/16 01:04:15;;;;;;;11.32;6.03;;;12.50;99.90;;;;;;5045613;28;20045;-63
2021/06/16 01:06:41;;;;;;;13.80;5.40;;;12.40;99.90;;;;;;5045091;28;20144;-63
2021/06/16 01:09:44;;;;;;;11.48;5.10;;;12.40;99.90;;;;;;5045535;28;20103;-63
2021/06/16 01:12:22;;;;;;;9.55;4.82;;;12.40;99.90;;;;;;5037090;28;20054;-63
2021/06/16 01:14:59;;;;;;;13.95;5.88;;;12.40;99.90;;;;;;5045164;28;20048;-63
2021/06/16 01:17:52;;;;;;;18.80;5.38;;;12.30;99.90;;;;;;5040161;28;20141;-63
2021/06/16 01:20:32;;;;;;;11.57;5.40;;;12.30;99.90;;;;;;5044812;28;20437;-63
2021/06/16 01:22:58;;;;;;;10.68;4.68;;;12.30;99.90;;;;;;5046027;28;20093;-63
2021/06/16 01:25:33;;;;;;;12.48;4.50;;;12.20;99.90;;;;;;5045783;28;20037;-64
2021/06/16 01:27:59;;;;;;;10.40;4.75;;;12.20;99.90;;;;;;5045249;28;20109;-64
2021/06/16 01:30:29;;;;;;;9.35;4.97;;;12.00;99.90;;;;;;5044276;28;20046;-62
2021/06/16 01:32:56;;;;;;;13.35;4.88;;;12.10;99.90;;;;;;5044683;28;20040;-62
2021/06/16 01:35:25;;;;;;;12.17;5.37;;;12.10;99.90;;;;;;5044339;28;20068;-63
2021/06/16 01:37:51;;;;;;;14.20;5.50;;;12.00;99.90;;;;;;5045278;28;20523;-63
2021/06/16 01:40:18;;;;;;;12.90;5.95;;;11.90;99.90;;;;;;5044504;28;20049;-63
2021/06/16 01:42:45;;;;;;;12.27;5.20;;;11.90;99.90;;;;;;5045287;28;20133;-63
2021/06/16 01:45:12;;;;;;;11.33;5.50;;;11.90;99.90;;;;;;5043863;28;20041;-62
2021/06/16 01:47:38;;;;;;;11.15;5.47;;;11.90;99.90;;;;;;5044713;28;20554;-63
2021/06/16 01:50:05;;;;;;;11.13;5.13;;;11.80;99.90;;;;;;5044651;28;20037;-63
2021/06/16 01:52:32;;;;;;;18.55;5.88;;;11.80;99.90;;;;;;5044318;28;20041;-63
2021/06/16 01:54:59;;;;;;;12.90;5.50;;;11.80;99.90;;;;;;5044099;28;20037;-63
2021/06/16 01:57:25;;;;;;;13.13;5.45;;;11.80;99.90;;;;;;5043816;28;20049;-63
2021/06/16 01:59:54;;;;;;;13.73;5.97;;;11.80;99.90;;;;;;5043515;28;20041;-63
2021/06/16 02:02:21;;;;;;;11.10;5.35;;;11.80;99.90;;;;;;5043734;28;20052;-63
2021/06/16 02:04:46;;;;;;;16.98;6.30;;;11.80;99.90;;;;;;5044079;28;20065;-64
2021/06/16 02:07:17;;;;;;;17.92;6.47;;;11.80;99.90;;;;;;5044441;28;20052;-63
2021/06/16 02:09:45;;;;;;;10.18;4.85;;;11.70;99.90;;;;;;5044315;28;20064;-64
2021/06/16 02:12:14;;;;;;;12.35;5.60;;;11.60;99.90;;;;;;5043783;28;20124;-64
2021/06/16 02:14:46;;;;;;;10.15;5.47;;;11.70;99.90;;;;;;5039904;28;20053;-62
2021/06/16 02:17:15;;;;;;;12.85;6.15;;;11.70;99.90;;;;;;5044512;28;20133;-62
2021/06/16 02:19:42;;;;;;;15.75;5.25;;;11.80;99.90;;;;;;5043843;28;20037;-62
2021/06/16 02:22:09;;;;;;;10.23;5.38;;;11.70;99.90;;;;;;5042964;28;20063;-63
2021/06/16 02:24:36;;;;;;;10.27;5.30;;;11.70;99.90;;;;;;5041845;28;20045;-63
2021/06/16 02:27:03;;;;;;;11.60;5.28;;;11.60;99.90;;;;;;5044593;28;20041;-63
2021/06/16 02:29:30;;;;;;;14.85;5.18;;;11.70;99.90;;;;;;5043281;28;20056;-63
2021/06/16 02:31:56;;;;;;;13.25;5.03;;;11.60;99.90;;;;;;5038868;28;20071;-62
2021/06/16 02:34:24;;;;;;;12.63;6.07;;;11.60;99.90;;;;;;5043844;28;20037;-63
2021/06/16 02:36:52;;;;;;;10.15;5.32;;;11.60;99.90;;;;;;5043920;28;20046;-63
2021/06/16 02:39:28;;;;;;;13.95;5.40;;;11.60;99.90;;;;;;5040949;28;20054;-62
2021/06/16 02:41:55;;;;;;;13.60;6.15;;;11.60;99.90;;;;;;5044567;28;20075;-63
2021/06/16 02:44:22;;;;;;;12.13;5.50;;;11.60;99.90;;;;;;5042985;28;20049;-63
2021/06/16 02:46:51;;;;;;;16.63;6.75;;;11.60;99.90;;;;;;5044468;28;20137;-65
2021/06/16 02:49:29;;;;;;;13.57;5.18;;;11.60;99.90;;;;;;5043314;28;20048;-64
2021/06/16 02:51:56;;;;;;;;;;;11.60;99.90;;;;;;5042546;28;20049;-62
2021/06/16 02:54:23;;;;;;;14.23;5.47;;;11.70;99.90;;;;;;5040382;28;19982;-63
2021/06/16 02:56:49;;;;;;;11.02;5.07;;;11.60;99.90;;;;;;5044230;28;20043;-63
2021/06/16 02:59:17;;;;;;;12.23;5.32;;;11.60;99.90;;;;;;5042542;28;20109;-62
2021/06/16 03:01:45;;;;;;;13.68;6.88;;;11.60;99.90;;;;;;5043844;28;20148;-62
2021/06/16 03:04:12;;;;;;;12.65;6.60;;;11.60;99.90;;;;;;5042088;28;20052;-63
2021/06/16 03:06:40;;;;;;;12.70;5.57;;;11.60;99.90;;;;;;5043822;28;20049;-62
2021/06/16 03:09:06;;;;;;;15.23;6.57;;;11.60;99.90;;;;;;5042619;28;20117;-62
2021/06/16 03:11:33;;;;;;;12.13;5.97;;;11.40;99.90;;;;;;5043514;28;20056;-63
2021/06/16 03:14:02;;;;;;;16.67;6.28;;;11.50;99.90;;;;;;5042760;28;20049;-63
2021/06/16 03:16:29;;;;;;;12.60;5.47;;;11.50;99.90;;;;;;5043122;28;20047;-63
2021/06/16 03:18:56;;;;;;;13.43;5.22;;;11.50;99.90;;;;;;5043195;28;20045;-63
2021/06/16 03:21:22;;;;;;;15.38;6.22;;;11.60;99.90;;;;;;5042828;28;20061;-63
2021/06/16 03:23:49;;;;;;;19.30;6.30;;;11.50;99.90;;;;;;5042556;28;20049;-63
2021/06/16 03:26:19;;;;;;;16.65;6.63;;;11.50;99.90;;;;;;5042615;28;20038;-63
2021/06/16 03:28:47;;;;;;;15.18;5.90;;;11.60;99.90;;;;;;5042645;28;20045;-62
2021/06/16 03:31:13;;;;;;;11.25;5.95;;;11.60;99.90;;;;;;5042845;28;20053;-63
2021/06/16 03:33:41;;;;;;;14.15;6.43;;;11.50;99.90;;;;;;5043027;28;20049;-63
2021/06/16 03:36:09;;;;;;;12.57;5.80;;;11.60;99.90;;;;;;5042361;28;20124;-62
2021/06/16 03:38:38;;;;;;;13.43;6.00;;;11.60;99.90;;;;;;5043084;28;20535;-64
2021/06/16 03:41:04;;;;;;;18.80;6.38;;;11.60;99.90;;;;;;5042597;28;20045;-62
2021/06/16 03:43:30;;;;;;;15.77;5.85;;;11.70;99.90;;;;;;5043062;28;20083;-63
2021/06/16 03:45:57;;;;;;;14.15;5.65;;;11.80;99.90;;;;;;5042359;28;20045;-63
2021/06/16 03:48:26;;;;;;;14.35;6.07;;;11.80;99.90;;;;;;5043183;28;20052;-63
2021/06/16 03:50:53;;;;;;;11.13;6.28;;;11.90;99.90;;;;;;5042312;28;20067;-63
2021/06/16 03:53:20;;;;;;;14.20;5.82;;;12.00;99.90;;;;;;5043048;28;20064;-63
2021/06/16 03:55:49;;;;;;;16.77;5.93;;;11.90;99.90;;;;;;5042863;28;20128;-63
2021/06/16 03:58:16;;;;;;;15.70;6.80;;;12.00;99.90;;;;;;5042248;28;20166;-63
2021/06/16 04:00:43;;;;;;;10.27;5.72;;;12.10;99.90;;;;;;5038226;28;20053;-64
2021/06/16 04:03:11;;;;;;;13.43;6.43;;;12.10;99.90;;;;;;5042095;28;20049;-62
2021/06/16 04:05:37;;;;;;;11.57;5.85;;;12.10;99.90;;;;;;5031564;28;20041;-65
2021/06/16 04:08:05;;;;;;;14.18;5.82;;;12.10;99.90;;;;;;5043136;28;20056;-62
2021/06/16 04:10:32;;;;;;;11.77;6.53;;;12.20;99.90;;;;;;5042688;28;20049;-64
2021/06/16 04:12:58;;;;;;;18.57;6.97;;;12.30;99.90;;;;;;5042729;28;20056;-64
2021/06/16 04:15:24;;;;;;;14.18;5.80;;;12.30;99.90;;;;;;5040883;28;20049;-63
2021/06/16 04:17:53;;;;;;;8.80;5.93;;;12.40;99.90;;;;;;5044999;28;20056;-62
2021/06/16 04:20:19;;;;;;;16.08;6.50;;;12.40;99.90;;;;;;5045986;28;20120;-64
2021/06/16 04:22:45;;;;;;;13.27;5.90;;;12.40;99.90;;;;;;5046849;28;20042;-63
2021/06/16 04:25:12;;;;;;;17.10;6.72;;;12.40;99.90;;;;;;5046314;28;20099;-63
2021/06/16 04:27:39;;;;;;;8.32;5.38;;;12.50;99.90;;;;;;5044920;28;20049;-63
2021/06/16 04:30:08;;;;;;;12.23;6.70;;;12.50;99.90;;;;;;5042711;28;20064;-63
2021/06/16 04:32:34;;;;;;;13.07;6.10;;;12.60;99.90;;;;;;5043249;28;20041;-63
2021/06/16 04:35:00;;;;;;;16.10;6.38;;;12.70;99.90;;;;;;5045907;28;20055;-63
2021/06/16 04:37:26;;;;;;;18.65;6.43;;;12.80;99.90;;;;;;5046575;28;20108;-62
2021/06/16 04:39:52;;;;;;;12.00;6.22;;;12.80;99.90;;;;;;5042548;28;20065;-63
2021/06/16 04:42:18;;;;;;;16.42;6.50;;;13.00;99.90;;;;;;5046463;28;20050;-63
2021/06/16 04:44:44;;;;;;;13.13;5.65;;;12.90;99.90;;;;;;5044996;28;20409;-64
2021/06/16 04:47:10;;;;;;;11.02;5.93;;;13.00;99.90;;;;;;5046245;28;20069;-63
2021/06/16 04:49:36;;;;;;;10.18;5.80;;;13.10;99.90;;;;;;5045269;28;20037;-63
2021/06/16 04:52:02;;;;;;;20.30;6.82;;;13.10;99.90;;;;;;5045980;28;20072;-63
2021/06/16 04:54:29;;;;;;;14.65;6.40;;;13.10;99.90;;;;;;5045727;28;20227;-63
2021/06/16 04:57:03;;;;;;;9.98;6.43;;;13.30;99.90;;;;;;5045642;28;20278;-63
2021/06/16 04:59:29;;;;;;;12.68;6.20;;;13.30;99.90;;;;;;5044855;28;20052;-63
2021/06/16 05:01:54;;;;;;;12.45;5.47;;;13.40;99.90;;;;;;5045905;28;20042;-63
2021/06/16 05:04:20;;;;;;;16.40;6.03;;;13.50;99.90;;;;;;5045950;28;20041;-63
2021/06/16 05:06:46;;;;;;;17.23;5.70;;;13.60;99.90;;;;;;5044517;28;20132;-63
2021/06/16 05:09:12;;;;;;;11.02;6.30;;;13.60;99.90;;;;;;5043743;28;20048;-63
2021/06/16 05:11:37;;;;;;;12.30;5.93;;;13.60;99.90;;;;;;5045334;28;20044;-63
2021/06/16 05:14:03;;;;;;;12.15;5.88;;;13.80;99.90;;;;;;5041865;28;20122;-63
2021/06/16 05:16:30;;;;;;;14.27;6.18;;;13.90;99.90;;;;;;5030207;28;20037;-63
2021/06/16 05:18:57;;;;;;;16.60;7.05;;;13.90;99.90;;;;;;5044788;28;20109;-63
2021/06/16 05:21:23;;;;;;;10.02;5.20;;;13.90;99.90;;;;;;5045210;28;20045;-62
2021/06/16 05:23:49;;;;;;;10.25;5.63;;;14.20;99.90;;;;;;5038705;28;20099;-62
2021/06/16 05:26:16;;;;;;;12.38;6.18;;;14.30;99.90;;;;;;5040575;28;20509;-63
2021/06/16 05:28:42;;;;;;;12.17;5.97;;;14.50;99.90;;;;;;5044439;28;20050;-62
2021/06/16 05:31:09;;;;;;;10.15;5.05;;;14.60;99.90;;;;;;5043852;28;20049;-62
2021/06/16 05:33:37;;;;;;;10.93;5.40;;;14.70;99.90;;;;;;5044902;28;20300;-63
2021/06/16 05:36:04;;;;;;;8.98;5.05;;;14.80;99.90;;;;;;5037528;28;20045;-63
2021/06/16 05:38:30;;;;;;;11.77;5.35;;;15.00;99.90;;;;;;5045556;28;20049;-63
2021/06/16 05:40:56;;;;;;;11.73;5.43;;;15.10;99.90;;;;;;5037798;28;20054;-62
2021/06/16 05:43:22;;;;;;;12.75;5.18;;;15.20;99.90;;;;;;5044083;28;20064;-63
2021/06/16 05:45:48;;;;;;;18.88;5.57;;;15.20;99.90;;;;;;5043894;28;20088;-63
2021/06/16 05:48:14;;;;;;;15.65;5.05;;;15.40;99.90;;;;;;5045655;28;20134;-63
2021/06/16 05:50:40;;;;;;;16.80;5.97;;;15.60;99.90;;;;;;5044749;28;20440;-63
2021/06/16 05:53:10;;;;;;;11.50;4.25;;;15.70;99.90;;;;;;5044410;28;20048;-63
2021/06/16 05:55:36;;;;;;;10.57;3.75;;;15.80;99.90;;;;;;5041919;28;20048;-65
2021/06/16 05:58:03;;;;;;;9.23;4.65;;;15.80;99.90;;;;;;5051011;28;20041;-63
2021/06/16 06:00:29;;;;;;;8.73;4.75;;;16.00;99.90;;;;;;5044587;28;20056;-64
2021/06/16 06:02:55;;;;;;;11.15;4.75;;;16.10;99.90;;;;;;5042564;28;20042;-63
2021/06/16 06:05:21;;;;;;;10.00;4.25;;;16.20;99.90;;;;;;5037634;28;20067;-63
2021/06/16 06:07:47;;;;;;;13.23;4.30;;;16.20;99.90;;;;;;5041528;28;20067;-64
2021/06/16 06:10:13;;;;;;;9.95;4.40;;;16.40;99.90;;;;;;5036632;28;20064;-63
2021/06/16 06:12:39;;;;;;;16.05;4.47;;;16.70;99.90;;;;;;5045488;28;20049;-65
2021/06/16 06:15:06;;;;;;;15.57;4.53;;;16.90;99.90;;;;;;5040157;28;20481;-64
2021/06/16 06:17:33;;;;;;;14.68;4.82;;;17.20;99.90;;;;;;5043688;28;20124;-64
2021/06/16 06:19:59;;;;;;;9.35;4.07;;;17.30;99.90;;;;;;5044746;28;20046;-64
2021/06/16 06:22:25;;;;;;;11.98;4.10;;;17.50;99.90;;;;;;5043759;28;20056;-63
2021/06/16 06:24:51;;;;;;;11.48;4.03;;;17.30;99.90;;;;;;5040643;28;20129;-64
2021/06/16 06:27:16;;;;;;;10.90;5.18;;;17.70;99.90;;;;;;5041940;28;20051;-64
2021/06/16 06:29:42;;;;;;;14.93;4.55;;;17.70;99.90;;;;;;5043963;28;20107;-64
2021/06/16 06:32:08;;;;;;;11.82;4.30;;;18.00;99.90;;;;;;5044612;28;20060;-64
2021/06/16 06:34:34;;;;;;;8.10;4.15;;;18.00;99.90;;;;;;5043547;28;20462;-63
2021/06/16 06:36:59;;;;;;;7.80;3.70;;;18.20;99.90;;;;;;5037820;28;20128;-63
2021/06/16 06:39:25;;;;;;;9.20;3.55;;;18.40;99.90;;;;;;5043838;28;20050;-64
2021/06/16 06:41:51;;;;;;;8.95;4.65;;;18.30;99.90;;;;;;5042750;28;20051;-64
2021/06/16 06:44:17;;;;;;;11.30;5.15;;;18.40;99.90;;;;;;5043714;28;20037;-64
2021/06/16 06:46:42;;;;;;;12.57;4.05;;;18.40;99.90;;;;;;5044587;28;20045;-65
2021/06/16 06:49:09;;;;;;;11.02;4.18;;;18.40;99.90;;;;;;5044494;28;20041;-64
2021/06/16 06:51:34;;;;;;;13.13;4.32;;;18.50;99.90;;;;;;5036622;28;20052;-64
2021/06/16 06:54:00;;;;;;;11.30;4.55;;;18.50;99.90;;;;;;5043975;28;20045;-64
2021/06/16 06:56:27;;;;;;;11.30;4.25;;;18.60;99.90;;;;;;5043749;28;20056;-64
2021/06/16 06:58:52;;;;;;;13.68;4.75;;;18.50;99.90;;;;;;5042899;28;20057;-64
2021/06/16 07:01:18;;;;;;;12.45;4.68;;;18.60;99.90;;;;;;5043147;28;20049;-64
2021/06/16 07:03:44;;;;;;;12.27;4.85;;;18.70;99.90;;;;;;5043926;28;20068;-64
2021/06/16 07:06:10;;;;;;;9.55;4.32;;;18.70;99.90;;;;;;5043320;28;20111;-64
2021/06/16 07:08:35;;;;;;;10.40;4.40;;;18.90;99.90;;;;;;5042908;28;20037;-64
2021/06/16 07:11:01;;;;;;;13.25;4.63;;;19.00;99.90;;;;;;5044205;28;20068;-65
2021/06/16 07:13:27;;;;;;;14.95;4.15;;;19.30;99.90;;;;;;5043839;28;20041;-64
2021/06/16 07:15:53;;;;;;;14.48;4.95;;;19.40;99.90;;;;;;5046604;28;20051;-64
2021/06/16 07:18:19;;;;;;;9.00;4.40;;;19.50;99.90;;;;;;5046445;28;20041;-64
2021/06/16 07:20:45;;;;;;;14.85;5.20;;;19.70;99.90;;;;;;5038921;28;20038;-64
2021/06/16 07:23:10;;;;;;;12.20;4.60;;;19.70;99.90;;;;;;5040325;28;20050;-64
2021/06/16 07:25:56;;;;;;;8.77;4.10;;;19.80;99.90;;;;;;5045730;28;20058;-64
2021/06/16 07:28:22;;;;;;;10.77;4.18;;;20.00;99.90;;;;;;5043920;28;20068;-64
2021/06/16 07:30:48;;;;;;;10.57;4.38;;;19.90;99.90;;;;;;5036362;28;20486;-64
2021/06/16 07:33:14;;;;;;;10.80;4.55;;;20.00;99.90;;;;;;5039280;28;20041;-64
2021/06/16 07:35:40;;;;;;;7.50;4.53;;;20.10;99.90;;;;;;5037417;28;20049;-64
2021/06/16 07:38:05;;;;;;;10.40;4.45;;;20.10;99.90;;;;;;5033745;28;20033;-64
2021/06/16 07:40:31;;;;;;;14.10;4.55;;;20.10;99.90;;;;;;5040911;28;20080;-64
2021/06/16 07:42:57;;;;;;;14.52;5.18;;;20.30;99.90;;;;;;5042378;28;20045;-65
2021/06/16 07:45:23;;;;;;;11.13;5.22;;;20.40;99.90;;;;;;5040050;28;20037;-64
2021/06/16 07:47:48;;;;;;;11.02;4.07;;;20.50;99.90;;;;;;5042966;28;20048;-64
2021/06/16 07:50:15;;;;;;;9.95;4.43;;;20.70;99.90;;;;;;5034212;28;20468;-64
2021/06/16 07:52:40;;;;;;;10.85;4.32;;;20.80;99.90;;;;;;5040870;28;20045;-64
2021/06/16 07:55:07;;;;;;;12.60;4.70;;;20.90;99.90;;;;;;5040377;28;20038;-64
2021/06/16 07:57:34;;;;;;;14.40;5.10;;;20.90;99.90;;;;;;5034096;28;20045;-65
2021/06/16 07:59:59;;;;;;;14.48;4.03;;;21.00;99.90;;;;;;5039869;28;20076;-64
2021/06/16 08:02:27;;;;;;;9.27;4.05;;;21.10;99.90;;;;;;5040821;28;20041;-64
2021/06/16 08:04:53;;;;;;;;;;;21.10;99.90;;;;;;5042982;28;20120;-64
2021/06/16 08:07:20;;;;;;;8.95;4.03;;;21.20;99.90;;;;;;5036474;28;19922;-64
2021/06/16 08:09:45;;;;;;;9.40;3.92;;;21.30;99.90;;;;;;5039021;28;20037;-64
2021/06/16 08:12:12;;;;;;;9.13;3.40;;;21.20;99.90;;;;;;5034019;28;20053;-64
2021/06/16 08:14:39;;;;;;;8.70;3.92;;;21.40;99.90;;;;;;5035675;28;20073;-64
2021/06/16 08:17:06;;;;;;;14.93;4.30;;;21.50;99.90;;;;;;5034026;28;20286;-64
2021/06/16 08:19:33;;;;;;;13.90;4.30;;;21.60;99.90;;;;;;5033266;28;20751;-64
2021/06/16 08:22:00;;;;;;;10.10;3.47;;;21.90;99.90;;;;;;5042890;28;20056;-64
2021/06/16 08:24:26;;;;;;;8.65;3.47;;;22.00;99.90;;;;;;5041430;28;20044;-64
2021/06/16 08:26:52;;;;;;;9.23;3.15;;;22.10;99.90;;;;;;5036768;28;20054;-64
2021/06/16 08:29:18;;;;;;;10.02;4.10;;;22.10;99.90;;;;;;5038316;28;20053;-64
2021/06/16 08:31:44;;;;;;;16.52;4.13;;;22.10;99.90;;;;;;5036245;28;20049;-64
2021/06/16 08:34:10;;;;;;;7.65;3.47;;;22.20;99.90;;;;;;5042522;28;20129;-65
2021/06/16 08:36:36;;;;;;;10.30;3.65;;;22.30;99.90;;;;;;5041183;28;20223;-64
2021/06/16 08:39:03;;;;;;;10.00;4.18;;;22.40;99.90;;;;;;5042340;28;20404;-64
2021/06/16 08:41:30;;;;;;;;;;;22.30;99.10;;;;;;5039778;28;20076;-65
2021/06/16 08:43:56;;;;;;;8.32;2.75;;;22.40;98.00;;;;;;5041602;28;19921;-64
2021/06/16 08:46:22;;;;;;;7.97;2.90;;;22.60;96.30;;;;;;5040128;28;20064;-64
2021/06/16 08:48:48;;;;;;;9.30;3.20;;;22.70;96.70;;;;;;5033601;28;20046;-64
2021/06/16 08:51:16;;;;;;;7.28;2.60;;;22.60;97.00;;;;;;5040290;28;20045;-64
2021/06/16 08:53:43;;;;;;;17.50;3.25;;;22.70;98.20;;;;;;5032071;28;20053;-65
2021/06/16 08:56:10;;;;;;;7.45;2.78;;;22.80;97.10;;;;;;5038724;28;20045;-64
2021/06/16 08:58:41;;;;;;;7.38;2.53;;;22.90;97.70;;;;;;5039208;28;20034;-64
2021/06/16 09:01:09;;;;;;;11.25;3.35;;;22.80;96.90;;;;;;5035312;28;20045;-64
2021/06/16 09:03:36;;;;;;;9.80;2.60;;;22.60;97.30;;;;;;5039867;28;20129;-64
2021/06/16 09:06:04;;;;;;;6.80;2.33;;;22.70;96.10;;;;;;5036611;28;20038;-64
2021/06/16 09:08:30;;;;;;;7.88;2.65;;;22.70;95.90;;;;;;5038678;28;20034;-65
2021/06/16 09:10:57;;;;;;;7.10;2.47;;;22.70;90.60;;;;;;5045151;28;20045;-64
2021/06/16 09:13:31;;;;;;;6.03;2.30;;;22.70;93.90;;;;;;5043430;28;20046;-64
2021/06/16 09:16:01;;;;;;;6.10;2.17;;;23.00;93.40;;;;;;5034318;28;20052;-64
2021/06/16 09:18:27;;;;;;;7.07;1.58;;;23.00;90.80;;;;;;5039916;28;20120;-64
2021/06/16 09:20:57;;;;;;;3.93;2.00;;;23.20;88.70;;;;;;5035318;28;20064;-64
2021/06/16 09:23:27;;;;;;;11.35;2.08;;;23.30;88.40;;;;;;5030203;28;20052;-64
2021/06/16 09:26:22;;;;;;;6.68;1.85;;;23.30;87.00;;;;;;5044658;28;21690;-64
2021/06/16 09:28:51;;;;;;;8.13;2.22;;;23.40;86.10;;;;;;5033895;28;20080;-64
2021/06/16 09:31:20;;;;;;;9.65;2.25;;;23.40;90.40;;;;;;5031807;28;20052;-64
2021/06/16 09:33:46;;;;;;;7.63;2.22;;;23.20;90.50;;;;;;5030472;28;20076;-64
2021/06/16 09:36:17;;;;;;;8.38;2.80;;;23.20;90.90;;;;;;5036955;28;20044;-64
2021/06/16 09:38:46;;;;;;;6.95;2.25;;;23.20;91.00;;;;;;5037007;28;20541;-64
2021/06/16 09:41:23;;;;;;;8.27;2.35;;;23.00;91.90;;;;;;5035574;28;20049;-65
2021/06/16 09:43:55;;;;;;;8.98;2.85;;;23.30;92.60;;;;;;5029856;28;20061;-64
2021/06/16 09:46:21;;;;;;;12.40;2.35;;;23.40;92.80;;;;;;5041261;28;20065;-64
2021/06/16 09:48:47;;;;;;;17.65;3.13;;;23.30;92.60;;;;;;5042889;28;20053;-64
2021/06/16 09:51:28;;;;;;;10.13;2.57;;;23.40;93.60;;;;;;5038525;28;20051;-65
2021/06/16 09:53:58;;;;;;;17.25;2.85;;;23.40;93.20;;;;;;5038231;28;20057;-64
2021/06/16 09:56:32;;;;;;;3.92;2.13;;;23.40;92.50;;;;;;5036790;28;20113;-65
2021/06/16 09:58:59;;;;;;;7.90;2.05;;;23.20;93.00;;;;;;5031483;28;20100;-64
2021/06/16 10:01:45;;;;;;;5.25;2.13;;;23.60;90.80;;;;;;5024823;28;20045;-64
2021/06/16 10:04:14;;;;;;;7.30;2.20;;;23.80;91.20;;;;;;5032678;28;20141;-64
2021/06/16 10:06:39;;;;;;;10.55;2.45;;;24.20;86.30;;;;;;5040732;28;20426;-65
2021/06/16 10:09:08;;;;;;;13.32;2.40;;;24.10;85.90;;;;;;5040424;28;20045;-65
2021/06/16 10:11:35;;;;;;;8.45;2.20;;;24.10;87.20;;;;;;5039452;28;20042;-65
2021/06/16 10:14:02;;;;;;;7.55;2.08;;;24.20;85.00;;;;;;5038712;28;20069;-66
2021/06/16 10:16:28;;;;;;;3.67;2.22;;;24.20;85.90;;;;;;5039526;28;20064;-65
2021/06/16 10:18:54;;;;;;;6.50;1.95;;;24.20;87.80;;;;;;5041355;28;20054;-65
2021/06/16 10:21:22;;;;;;;8.13;1.95;;;24.40;79.00;;;;;;5040946;28;20041;-67
2021/06/16 10:23:48;;;;;;;4.53;1.55;;;24.40;74.70;;;;;;5043553;28;20076;-64
2021/06/16 10:26:16;;;;;;;4.65;1.88;;;24.30;81.50;;;;;;5036858;28;20048;-65
2021/06/16 10:28:53;;;;;;;12.02;2.10;;;24.30;76.80;;;;;;5039526;28;20046;-65
2021/06/16 10:31:19;;;;;;;5.43;2.10;;;24.40;76.70;;;;;;5041220;28;20044;-64
2021/06/16 10:33:57;;;;;;;3.47;1.65;;;24.30;79.70;;;;;;5036402;28;20042;-65
2021/06/16 10:36:24;;;;;;;7.72;1.45;;;24.50;75.30;;;;;;5034805;28;20050;-64
2021/06/16 10:38:59;;;;;;;6.57;2.15;;;24.60;76.60;;;;;;5040174;28;20102;-64
2021/06/16 10:41:37;;;;;;;6.43;1.98;;;24.80;69.30;;;;;;5038620;28;20050;-64
2021/06/16 10:44:14;;;;;;;;;;;24.80;65.40;;;;;;5035412;28;20196;-64
2021/06/16 10:47:09;;;;;;;7.10;1.75;;;24.70;71.00;;;;;;5035157;28;19921;-65
2021/06/16 10:49:49;;;;;;;3.35;1.33;;;25.00;67.30;;;;;;5034083;28;20108;-64
2021/06/16 10:52:21;;;;;;;9.88;1.52;;;24.90;65.60;;;;;;5038421;28;20098;-65
2021/06/16 10:54:54;;;;;;;15.65;2.42;;;24.80;70.40;;;;;;5038551;28;20045;-64
2021/06/16 10:57:19;;;;;;;6.50;1.70;;;25.00;63.70;;;;;;5039941;28;20049;-64
2021/06/16 10:59:47;;;;;;;7.07;1.77;;;25.00;62.20;;;;;;5035296;28;20042;-64
2021/06/16 11:02:38;;;;;;;6.40;1.88;;;25.30;58.60;;;;;;5034605;28;20672;-65
2021/06/16 11:05:21;;;;;;;5.53;2.50;;;25.30;61.50;;;;;;5037405;28;20045;-64
2021/06/16 11:07:47;;;;;;;13.70;1.83;;;25.40;57.40;;;;;;5029351;28;20045;-64
2021/06/16 11:10:13;;;;;;;8.70;1.88;;;25.50;58.70;;;;;;5037362;28;20106;-64
2021/06/16 11:12:44;;;;;;;8.57;2.00;;;25.70;59.30;;;;;;5039834;28;20049;-64
2021/06/16 11:15:30;;;;;;;6.57;1.77;;;;;;;;;;5038348;28;20049;-63
2021/06/16 11:17:59;;;;;;;5.43;1.77;;;26.10;58.40;;;;;;5041010;28;20076;-65
2021/06/16 11:20:24;;;;;;;6.60;2.10;;;26.30;56.80;;;;;;5040476;28;20049;-65
2021/06/16 11:22:55;;;;;;;5.57;1.65;;;26.30;55.10;;;;;;5039873;28;20144;-65
2021/06/16 11:25:34;;;;;;;9.27;2.00;;;26.40;56.40;;;;;;5037690;28;20063;-66
2021/06/16 11:28:15;;;;;;;6.18;1.92;;;26.30;52.80;;;;;;5034478;28;20037;-65
2021/06/16 11:30:48;;;;;;;7.15;1.95;;;26.30;53.50;;;;;;5040214;28;20045;-64
2021/06/16 11:33:23;;;;;;;8.75;2.08;;;26.60;56.30;;;;;;5035256;28;20481;-64
2021/06/16 11:35:52;;;;;;;5.50;1.60;;;26.90;51.70;;;;;;5035354;28;20046;-64
2021/06/16 11:38:20;;;;;;;3.85;1.60;;;27.40;52.20;;;;;;5039140;28;20076;-64
2021/06/16 11:40:52;;;;;;;2.97;1.45;;;27.60;50.70;;;;;;5037692;28;20426;-64
2021/06/16 11:43:53;;;;;;;9.43;1.73;;;28.10;48.40;;;;;;5039264;28;20129;-64
2021/06/16 11:46:26;;;;;;;5.68;1.27;;;28.50;47.90;;;;;;5054796;28;20057;-65
2021/06/16 11:49:07;;;;;;;5.00;1.77;;;28.10;46.90;;;;;;5056452;28;20556;-64
2021/06/16 11:51:46;;;;;;;5.68;2.03;;;28.30;46.60;;;;;;5058566;28;20053;-64
2021/06/16 11:56:54;;;;;;;7.97;1.30;;;28.90;47.20;;;;;;5053177;28;20060;-64
2021/06/16 11:59:29;;;;;;;7.40;2.50;;;29.60;48.20;;;;;;5057693;28;20053;-65
2021/06/16 12:02:10;;;;;;;4.93;1.42;;;29.80;45.90;;;;;;5059502;28;20080;-65
2021/06/16 12:04:52;;;;;;;12.73;1.90;;;30.10;45.20;;;;;;5058793;28;20059;-64
2021/06/16 12:07:25;;;;;;;5.30;1.70;;;30.10;42.10;;;;;;5058894;28;20064;-65
2021/06/16 12:09:56;;;;;;;8.02;1.35;;;29.60;43.60;;;;;;5058282;28;20091;-65
2021/06/16 12:12:22;;;;;;;5.93;1.52;;;30.20;45.20;;;;;;5059072;28;20127;-64
2021/06/16 12:14:49;;;;;;;4.85;1.48;;;30.10;43.90;;;;;;5057679;28;20563;-64
2021/06/16 12:17:15;;;;;;;6.32;2.15;;;30.80;45.30;;;;;;5059269;28;20060;-64
2021/06/16 12:19:41;;;;;;;3.97;1.08;;;31.30;43.70;;;;;;5057808;28;20065;-64
2021/06/16 12:22:11;;;;;;;2.95;1.25;;;30.70;42.40;;;;;;5053372;28;20057;-64
2021/06/16 12:24:40;;;;;;;7.05;2.15;;;30.70;41.90;;;;;;5033007;28;20115;-64
2021/06/16 12:27:16;;;;;;;5.72;1.35;;;31.40;42.60;;;;;;5029572;28;20109;-64
2021/06/16 12:29:53;;;;;;;3.85;1.27;;;30.90;39.60;;;;;;5032564;28;20049;-64
2021/06/16 12:32:49;;;;;;;4.47;1.48;;;31.40;39.90;;;;;;5039475;28;20168;-64
2021/06/16 12:37:53;;;;;;;3.63;1.17;;;32.30;39.40;;;;;;5033838;28;20045;-65
2021/06/16 12:40:34;;;;;;;5.32;1.35;;;30.80;37.20;;;;;;5038288;28;20115;-64
2021/06/16 12:43:00;;;;;;;3.30;0.90;;;31.30;39.40;;;;;;5038470;28;20065;-64
2021/06/16 12:45:39;;;;;;;3.70;1.15;;;31.90;39.30;;;;;;5043615;28;20389;-65
2021/06/16 12:48:16;;;;;;;3.90;1.27;;;31.50;39.00;;;;;;5039690;28;20132;-64
2021/06/16 12:50:58;;;;;;;7.53;1.48;;;31.80;37.90;;;;;;5044607;28;20101;-64
2021/06/16 12:53:25;;;;;;;3.92;1.63;;;31.70;38.70;;;;;;5039916;28;20044;-64
2021/06/16 12:56:00;;;;;;;6.43;1.50;;;31.60;39.20;;;;;;5037046;28;20079;-64